createdAt,value
2018-10-02T00:00:45.564Z,3.10
2018-10-02T00:03:14.401Z,3.27
2018-10-02T00:05:43.240Z,2.80
2018-10-02T00:08:12.040Z,3.00
2018-10-02T00:10:40.852Z,3.03
2018-10-02T00:14:13.931Z,3.63
2018-10-02T00:16:42.737Z,4.03
2018-10-02T00:19:11.571Z,4.60
2018-10-02T00:21:40.424Z,3.90
2018-10-02T00:24:09.265Z,4.40
2018-10-02T00:26:38.071Z,2.70
2018-10-02T00:29:06.876Z,3.40
2018-10-02T00:31:35.795Z,4.93
2018-10-02T00:34:04.512Z,3.80
2018-10-02T00:36:33.074Z,3.97
2018-10-02T00:39:01.866Z,3.60
2018-10-02T00:41:32.380Z,4.50
2018-10-02T00:44:01.232Z,4.13
2018-10-02T00:46:30.197Z,3.47
2018-10-02T00:48:59.044Z,3.57
2018-10-02T00:51:27.850Z,3.10
2018-10-02T00:53:56.784Z,3.37
2018-10-02T00:56:25.599Z,2.17
2018-10-02T00:58:54.572Z,2.70
2018-10-02T01:01:23.440Z,3.03
2018-10-02T01:03:52.290Z,2.80
2018-10-02T01:06:21.096Z,2.63
2018-10-02T01:08:49.888Z,2.90
2018-10-02T01:11:18.735Z,2.50
2018-10-02T01:13:47.532Z,3.43
2018-10-02T01:16:16.102Z,3.50
2018-10-02T01:18:44.840Z,2.57
2018-10-02T01:21:13.684Z,2.90
2018-10-02T01:23:42.492Z,2.90
2018-10-02T01:26:11.373Z,2.60
2018-10-02T01:28:41.108Z,2.53
2018-10-02T01:31:09.917Z,2.83
2018-10-02T01:33:39.558Z,2.53
2018-10-02T01:36:09.136Z,2.93
2018-10-02T01:38:37.960Z,2.67
2018-10-02T01:41:06.789Z,2.90
2018-10-02T01:43:35.572Z,3.10
2018-10-02T01:46:04.645Z,2.70
2018-10-02T01:48:33.437Z,2.20
2018-10-02T01:51:02.268Z,3.30
2018-10-02T01:53:31.055Z,2.20
2018-10-02T01:55:59.640Z,2.87
2018-10-02T01:58:29.153Z,3.23
2018-10-02T02:00:57.980Z,2.93
2018-10-02T02:03:26.775Z,2.80
2018-10-02T02:05:55.612Z,2.73
2018-10-02T02:08:24.428Z,3.23
2018-10-02T02:10:53.264Z,2.70
2018-10-02T02:13:22.083Z,2.83
2018-10-02T02:15:50.912Z,2.90
2018-10-02T02:18:19.724Z,2.70
2018-10-02T02:20:48.549Z,3.43
2018-10-02T02:23:17.353Z,2.70
2018-10-02T02:25:46.249Z,3.23
2018-10-02T02:28:15.011Z,3.30
2018-10-02T02:30:44.205Z,3.27
2018-10-02T02:33:13.092Z,2.07
2018-10-02T02:35:41.916Z,2.20
2018-10-02T02:38:10.744Z,2.63
2018-10-02T02:40:39.596Z,2.50
2018-10-02T02:43:08.392Z,2.30
2018-10-02T02:45:37.224Z,2.67
2018-10-02T02:48:11.385Z,3.00
2018-10-02T02:50:45.959Z,2.87
2018-10-02T02:53:17.043Z,2.53
2018-10-02T02:55:46.500Z,2.70
2018-10-02T02:58:15.359Z,2.00
2018-10-02T03:00:44.140Z,2.47
2018-10-02T03:03:12.699Z,2.30
2018-10-02T03:05:41.436Z,3.67
2018-10-02T03:08:10.261Z,2.57
2018-10-02T03:10:39.077Z,2.63
2018-10-02T03:13:07.902Z,3.10
2018-10-02T03:15:36.688Z,3.70
2018-10-02T03:18:05.504Z,2.73
2018-10-02T03:20:34.345Z,2.53
2018-10-02T03:23:03.141Z,2.90
2018-10-02T03:25:31.968Z,3.00
2018-10-02T03:28:00.829Z,3.47
2018-10-02T03:30:29.627Z,2.90
2018-10-02T03:32:58.458Z,2.73
2018-10-02T03:35:27.251Z,3.70
2018-10-02T03:37:56.155Z,2.40
2018-10-02T03:40:24.870Z,4.17
2018-10-02T03:42:53.715Z,3.40
2018-10-02T03:45:22.525Z,3.47
2018-10-02T03:47:51.408Z,2.70
2018-10-02T03:50:20.228Z,3.67
2018-10-02T03:52:49.033Z,3.27
2018-10-02T03:55:17.851Z,2.73
2018-10-02T03:57:46.658Z,4.03
2018-10-02T04:00:15.462Z,2.90
2018-10-02T04:02:45.280Z,2.90
2018-10-02T04:05:14.075Z,3.77
2018-10-02T04:07:42.896Z,3.50
2018-10-02T04:10:11.708Z,3.77
2018-10-02T04:12:40.525Z,3.80
2018-10-02T04:15:09.332Z,3.00
2018-10-02T04:17:38.164Z,3.80
2018-10-02T04:20:06.972Z,3.37
2018-10-02T04:22:36.749Z,3.10
2018-10-02T04:25:05.552Z,2.30
2018-10-02T04:27:34.387Z,3.70
2018-10-02T04:30:03.246Z,2.60
2018-10-02T04:32:32.057Z,3.03
2018-10-02T04:35:00.896Z,3.70
2018-10-02T04:37:29.723Z,9.73
2018-10-02T04:39:58.521Z,2.80
2018-10-02T04:42:27.315Z,3.23
2018-10-02T04:44:56.128Z,3.93
2018-10-02T04:47:24.960Z,2.83
2018-10-02T04:49:53.769Z,3.40
2018-10-02T04:52:22.588Z,2.63
2018-10-02T04:54:51.402Z,3.47
2018-10-02T04:57:20.248Z,3.90
2018-10-02T04:59:49.117Z,4.37
2018-10-02T05:02:18.002Z,4.83
2018-10-02T05:04:46.755Z,4.00
2018-10-02T05:07:15.552Z,3.10
2018-10-02T05:09:44.390Z,3.53
2018-10-02T05:12:13.252Z,4.10
2018-10-02T05:14:42.081Z,3.67
2018-10-02T05:17:10.897Z,3.53
2018-10-02T05:19:39.733Z,4.33
2018-10-02T05:22:08.630Z,3.33
2018-10-02T05:24:37.408Z,3.57
2018-10-02T05:27:06.323Z,3.30
2018-10-02T05:29:35.156Z,3.30
2018-10-02T05:32:04.224Z,3.37
2018-10-02T05:34:33.048Z,3.43
2018-10-02T05:37:01.905Z,3.17
2018-10-02T05:39:30.791Z,3.27
2018-10-02T05:41:59.604Z,4.87
2018-10-02T05:44:28.420Z,2.93
2018-10-02T05:46:57.251Z,3.63
2018-10-02T05:49:26.192Z,3.27
2018-10-02T05:51:55.060Z,3.17
2018-10-02T05:54:23.940Z,4.00
2018-10-02T05:56:52.760Z,3.23
2018-10-02T05:59:21.608Z,3.90
2018-10-02T06:01:50.760Z,3.00
2018-10-02T06:04:19.598Z,3.63
2018-10-02T06:06:48.430Z,3.60
2018-10-02T06:09:17.299Z,4.00
2018-10-02T06:11:46.124Z,3.70
2018-10-02T06:14:14.958Z,3.13
2018-10-02T06:16:43.805Z,3.07
2018-10-02T06:19:13.079Z,3.70
2018-10-02T06:21:41.824Z,3.50
2018-10-02T06:24:10.429Z,3.80
2018-10-02T06:26:39.147Z,4.00
2018-10-02T06:29:07.960Z,3.80
2018-10-02T06:31:36.747Z,3.60
2018-10-02T06:34:05.572Z,4.10
2018-10-02T06:36:34.552Z,4.30
2018-10-02T06:39:03.491Z,4.00
2018-10-02T06:41:32.332Z,4.00
2018-10-02T06:44:01.276Z,4.00
2018-10-02T06:46:30.100Z,3.37
2018-10-02T06:48:59.296Z,4.17
2018-10-02T06:51:28.218Z,3.90
2018-10-02T06:53:56.825Z,3.77
2018-10-02T06:56:25.551Z,3.60
2018-10-02T06:58:54.424Z,4.43
2018-10-02T07:01:23.240Z,3.83
2018-10-02T07:03:52.424Z,3.87
2018-10-02T07:06:21.674Z,3.33
2018-10-02T07:08:50.767Z,3.60
2018-10-02T07:11:19.817Z,3.93
2018-10-02T07:13:49.967Z,6.57
2018-10-02T07:16:19.094Z,2.80
2018-10-02T07:18:49.350Z,4.80
2018-10-02T07:21:20.063Z,3.30
2018-10-02T07:23:49.250Z,2.77
2018-10-02T07:26:18.384Z,3.37
2018-10-02T07:28:48.282Z,3.07
2018-10-02T07:31:17.892Z,2.90
2018-10-02T07:33:48.672Z,3.37
2018-10-02T07:36:18.490Z,3.13
2018-10-02T07:38:47.630Z,3.77
2018-10-02T07:41:16.714Z,3.77
2018-10-02T07:43:45.935Z,3.30
2018-10-02T07:46:15.026Z,3.83
2018-10-02T07:48:45.256Z,3.20
2018-10-02T07:51:14.495Z,3.70
2018-10-02T07:53:45.164Z,3.40
2018-10-02T07:56:15.501Z,3.23
2018-10-02T07:58:45.381Z,2.63
2018-10-02T08:01:14.331Z,3.60
2018-10-02T08:03:43.405Z,2.90
2018-10-02T08:06:12.535Z,2.60
2018-10-02T08:08:41.845Z,3.17
2018-10-02T08:11:11.662Z,3.20
2018-10-02T08:13:40.987Z,3.60
2018-10-02T08:16:11.056Z,3.07
2018-10-02T08:18:40.284Z,4.03
2018-10-02T08:21:09.616Z,3.40
2018-10-02T08:23:40.906Z,3.43
2018-10-02T08:26:10.133Z,3.93
2018-10-02T08:28:39.284Z,3.60
2018-10-02T08:31:11.684Z,3.80
2018-10-02T08:33:40.702Z,2.70
2018-10-02T08:36:09.976Z,3.33
2018-10-02T08:38:39.590Z,3.07
2018-10-02T08:41:08.699Z,3.00
2018-10-02T08:43:41.263Z,3.17
2018-10-02T08:46:10.525Z,3.27
2018-10-02T08:48:39.748Z,3.17
2018-10-02T08:51:08.873Z,3.03
2018-10-02T08:53:38.034Z,3.10
2018-10-02T08:56:07.340Z,2.27
2018-10-02T08:58:37.112Z,2.90
2018-10-02T09:01:08.511Z,2.30
2018-10-02T09:03:37.588Z,2.63
2018-10-02T09:06:07.281Z,2.37
2018-10-02T09:08:37.472Z,2.10
2018-10-02T09:11:07.287Z,2.10
2018-10-02T09:13:36.358Z,2.10
2018-10-02T09:16:05.754Z,2.00
2018-10-02T09:18:36.296Z,2.33
2018-10-02T09:21:11.691Z,2.40
2018-10-02T09:23:42.749Z,2.30
2018-10-02T09:26:11.949Z,2.03
2018-10-02T09:28:41.093Z,2.47
2018-10-02T09:32:13.429Z,2.60
2018-10-02T09:34:47.768Z,2.70
2018-10-02T09:37:22.247Z,3.10
2018-10-02T09:39:57.375Z,3.10
2018-10-02T09:42:31.793Z,2.87
2018-10-02T09:45:00.825Z,2.80
2018-10-02T09:47:30.164Z,2.20
2018-10-02T09:50:00.149Z,2.43
2018-10-02T09:52:29.883Z,2.83
2018-10-02T09:54:59.019Z,2.20
2018-10-02T09:57:29.054Z,2.10
2018-10-02T09:59:58.809Z,1.90
2018-10-02T10:02:35.039Z,1.93
2018-10-02T10:05:04.085Z,2.30
2018-10-02T10:07:33.155Z,2.07
2018-10-02T10:10:02.325Z,2.60
2018-10-02T10:12:31.663Z,2.17
2018-10-02T10:15:01.462Z,2.00
2018-10-02T10:17:31.272Z,2.23
2018-10-02T10:20:00.451Z,2.53
2018-10-02T10:22:30.458Z,2.03
2018-10-02T10:25:01.333Z,2.00
2018-10-02T10:27:30.525Z,2.33
2018-10-02T10:29:59.671Z,1.60
2018-10-02T10:32:28.784Z,1.90
2018-10-02T10:34:57.957Z,2.00
2018-10-02T10:37:27.156Z,2.40
2018-10-02T10:39:57.310Z,1.80
2018-10-02T10:42:27.002Z,1.40
2018-10-02T10:44:56.093Z,1.90
2018-10-02T10:47:25.245Z,1.63
2018-10-02T10:49:55.185Z,1.80
2018-10-02T10:52:24.312Z,2.23
2018-10-02T10:55:04.756Z,1.90
2018-10-02T10:57:33.816Z,1.33
2018-10-02T11:00:03.066Z,1.60
2018-10-02T11:02:33.055Z,1.73
2018-10-02T11:05:02.239Z,1.40
2018-10-02T11:07:31.281Z,1.50
2018-10-02T11:10:01.302Z,1.37
2018-10-02T11:12:31.815Z,1.27
2018-10-02T11:15:01.315Z,1.53
2018-10-02T11:17:31.348Z,1.63
2018-10-02T11:20:02.141Z,1.77
2018-10-02T11:22:34.006Z,1.50
2018-10-02T11:25:03.725Z,1.67
2018-10-02T11:27:33.748Z,1.70
2018-10-02T11:30:03.290Z,1.90
2018-10-02T11:32:33.246Z,1.53
2018-10-02T11:35:02.573Z,1.03
2018-10-02T11:37:32.613Z,1.47
2018-10-02T11:40:04.662Z,1.20
2018-10-02T11:42:34.735Z,1.23
2018-10-02T11:45:07.092Z,1.97
2018-10-02T11:47:36.153Z,1.50
2018-10-02T11:50:06.881Z,1.07
2018-10-02T11:52:37.057Z,1.60
2018-10-02T11:55:07.468Z,1.80
2018-10-02T11:57:37.068Z,1.00
2018-10-02T12:00:06.969Z,1.17
2018-10-02T12:02:36.877Z,1.63
2018-10-02T12:05:07.417Z,1.70
2018-10-02T12:07:37.217Z,1.30
2018-10-02T12:10:06.788Z,0.87
2018-10-02T12:12:35.989Z,1.30
2018-10-02T12:15:10.100Z,1.10
2018-10-02T12:17:39.233Z,1.33
2018-10-02T12:20:08.418Z,1.47
2018-10-02T12:22:38.493Z,0.87
2018-10-02T12:25:07.602Z,1.00
2018-10-02T12:27:37.541Z,1.27
2018-10-02T12:30:08.510Z,1.73
2018-10-02T12:32:38.548Z,1.00
2018-10-02T12:35:08.701Z,2.10
2018-10-02T12:37:38.084Z,1.17
2018-10-02T12:40:07.156Z,1.00
2018-10-02T12:42:36.405Z,1.17
2018-10-02T12:45:05.632Z,1.50
2018-10-02T12:47:36.033Z,1.17
2018-10-02T12:50:05.167Z,1.47
2018-10-02T12:52:37.244Z,1.80
2018-10-02T12:55:07.295Z,1.23
2018-10-02T12:57:36.592Z,0.90
2018-10-02T13:00:06.420Z,2.03
2018-10-02T13:02:36.280Z,1.03
2018-10-02T13:05:05.365Z,1.33
2018-10-02T13:07:36.169Z,1.10
2018-10-02T13:10:06.290Z,1.23
2018-10-02T13:12:36.236Z,0.90
2018-10-02T13:15:05.812Z,1.00
2018-10-02T13:17:35.776Z,1.20
2018-10-02T13:20:06.392Z,1.10
2018-10-02T13:22:36.505Z,1.10
2018-10-02T13:25:05.654Z,1.00
2018-10-02T13:27:36.434Z,0.77
2018-10-02T13:30:06.093Z,0.93
2018-10-02T13:32:36.091Z,1.10
2018-10-02T13:35:07.529Z,1.50
2018-10-02T13:37:38.161Z,1.30
2018-10-02T13:40:08.494Z,1.30
2018-10-02T13:42:37.792Z,1.57
2018-10-02T13:45:08.605Z,1.10
2018-10-02T13:47:37.797Z,1.40
2018-10-02T13:50:07.431Z,1.13
2018-10-02T13:52:38.539Z,1.03
2018-10-02T13:55:07.790Z,1.83
2018-10-02T13:57:36.593Z,0.90
2018-10-02T14:00:05.457Z,1.53
2018-10-02T14:02:34.407Z,1.33
2018-10-02T14:05:05.543Z,1.60
2018-10-02T14:07:35.277Z,1.00
2018-10-02T14:10:05.741Z,1.20
2018-10-02T14:12:35.897Z,1.23
2018-10-02T14:15:07.425Z,1.20
2018-10-02T14:17:36.637Z,1.70
2018-10-02T14:20:06.263Z,0.87
2018-10-02T14:22:35.428Z,1.50
2018-10-02T14:25:05.953Z,2.30
2018-10-02T14:27:35.690Z,1.20
2018-10-02T14:30:07.456Z,1.00
2018-10-02T14:32:36.674Z,1.00
2018-10-02T14:35:06.735Z,0.97
2018-10-02T14:37:35.840Z,0.90
2018-10-02T14:40:05.039Z,0.90
2018-10-02T14:42:40.153Z,1.50
2018-10-02T14:45:10.347Z,1.67
2018-10-02T14:47:39.480Z,1.30
2018-10-02T14:50:08.625Z,1.20
2018-10-02T14:52:38.032Z,0.93
2018-10-02T14:55:07.860Z,0.70
2018-10-02T14:57:36.885Z,1.00
2018-10-02T15:00:06.804Z,1.20
2018-10-02T15:02:35.865Z,1.80
2018-10-02T15:05:05.010Z,0.93
2018-10-02T15:07:34.265Z,1.00
2018-10-02T15:10:03.499Z,1.60
2018-10-02T15:12:32.843Z,1.33
2018-10-02T15:15:01.932Z,1.40
2018-10-02T15:17:31.569Z,1.00
2018-10-02T15:20:00.658Z,2.23
2018-10-02T15:22:29.689Z,1.50
2018-10-02T15:24:59.682Z,1.13
2018-10-02T15:27:30.320Z,1.13
2018-10-02T15:30:02.317Z,1.30
2018-10-02T15:32:32.898Z,1.10
2018-10-02T15:35:02.174Z,1.50
2018-10-02T15:37:31.431Z,2.07
2018-10-02T15:40:03.436Z,2.40
2018-10-02T15:42:33.924Z,2.00
2018-10-02T15:45:05.650Z,2.60
2018-10-02T15:47:34.733Z,2.30
2018-10-02T15:50:07.014Z,1.90
2018-10-02T15:52:36.269Z,2.03
2018-10-02T15:55:06.665Z,1.80
2018-10-02T15:57:36.035Z,1.90
2018-10-02T16:00:06.900Z,1.40
2018-10-02T16:02:35.981Z,1.37
2018-10-02T16:05:06.165Z,1.77
2018-10-02T16:07:35.296Z,1.80
2018-10-02T16:10:05.338Z,1.70
2018-10-02T16:12:35.874Z,1.93
2018-10-02T16:15:05.053Z,1.70
2018-10-02T16:17:35.148Z,1.50
2018-10-02T16:20:05.657Z,1.40
2018-10-02T16:22:35.344Z,2.10
2018-10-02T16:25:04.660Z,1.90
2018-10-02T16:27:34.249Z,1.90
2018-10-02T16:30:03.371Z,2.30
2018-10-02T16:32:33.455Z,2.00
2018-10-02T16:35:02.588Z,2.40
2018-10-02T16:37:31.672Z,2.70
2018-10-02T16:40:01.010Z,2.60
2018-10-02T16:42:30.165Z,2.47
2018-10-02T16:45:01.328Z,2.10
2018-10-02T16:47:31.577Z,1.77
2018-10-02T16:50:01.752Z,2.30
2018-10-02T16:52:31.436Z,1.57
2018-10-02T16:55:00.623Z,2.10
2018-10-02T16:57:30.366Z,1.80
2018-10-02T16:59:59.457Z,1.43
2018-10-02T17:02:28.520Z,1.20
2018-10-02T17:04:58.443Z,1.27
2018-10-02T17:07:27.488Z,1.67
2018-10-02T17:09:58.334Z,1.80
2018-10-02T17:12:27.996Z,1.90
2018-10-02T17:14:57.228Z,1.80
2018-10-02T17:17:26.953Z,2.70
2018-10-02T17:19:56.046Z,1.67
2018-10-02T17:22:25.152Z,2.20
2018-10-02T17:24:54.264Z,1.90
2018-10-02T17:27:23.344Z,2.30
2018-10-02T17:29:52.580Z,1.93
2018-10-02T17:32:21.661Z,1.67
2018-10-02T17:34:51.976Z,1.50
2018-10-02T17:37:21.113Z,2.17
2018-10-02T17:39:50.911Z,1.33
2018-10-02T17:42:20.010Z,1.87
2018-10-02T17:44:49.878Z,1.40
2018-10-02T17:47:19.040Z,1.33
2018-10-02T17:49:48.106Z,1.67
2018-10-02T17:52:17.868Z,1.80
2018-10-02T17:54:46.951Z,1.73
2018-10-02T17:57:16.081Z,1.93
2018-10-02T17:59:45.777Z,2.13
2018-10-02T18:02:14.867Z,1.07
2018-10-02T18:04:44.205Z,1.40
2018-10-02T18:07:14.536Z,3.30
2018-10-02T18:09:43.712Z,2.43
2018-10-02T18:12:13.301Z,1.43
2018-10-02T18:14:43.057Z,2.30
2018-10-02T18:17:13.200Z,1.40
2018-10-02T18:19:42.296Z,3.70
2018-10-02T18:22:12.136Z,1.33
2018-10-02T18:24:41.234Z,1.80
2018-10-02T18:27:10.355Z,1.83
2018-10-02T18:29:39.456Z,1.40
2018-10-02T18:32:11.568Z,1.87
2018-10-02T18:34:41.752Z,1.37
2018-10-02T18:37:10.856Z,0.60
2018-10-02T18:39:41.822Z,1.60
2018-10-02T18:42:11.056Z,1.40
2018-10-02T18:44:42.381Z,1.80
2018-10-02T18:47:12.324Z,1.70
2018-10-02T18:49:43.712Z,3.13
2018-10-02T18:52:14.526Z,1.87
2018-10-02T18:54:44.726Z,1.57
2018-10-02T18:57:13.841Z,1.30
2018-10-02T18:59:44.457Z,1.73
2018-10-02T19:02:13.579Z,1.73
2018-10-02T19:04:43.573Z,1.33
2018-10-02T19:07:14.150Z,1.10
2018-10-02T19:09:44.256Z,1.40
2018-10-02T19:12:18.626Z,1.50
2018-10-02T19:14:47.380Z,1.57
2018-10-02T19:17:18.145Z,1.50
2018-10-02T19:19:53.791Z,1.47
2018-10-02T19:22:23.569Z,1.73
2018-10-02T19:24:53.984Z,1.60
2018-10-02T19:27:23.304Z,1.30
2018-10-02T19:29:57.788Z,1.50
2018-10-02T19:32:26.961Z,1.30
2018-10-02T19:34:57.570Z,1.83
2018-10-02T19:37:31.977Z,1.70
2018-10-02T19:40:05.420Z,1.50
2018-10-02T19:42:36.611Z,1.87
2018-10-02T19:46:13.919Z,1.30
2018-10-02T19:48:43.086Z,1.50
2018-10-02T19:51:17.587Z,3.97
2018-10-02T19:53:47.677Z,1.70
2018-10-02T19:56:18.864Z,2.20
2018-10-02T19:58:49.074Z,1.30
2018-10-02T20:01:19.160Z,1.13
2018-10-02T20:03:49.277Z,1.80
2018-10-02T20:06:19.382Z,1.10
2018-10-02T20:08:49.733Z,1.70
2018-10-02T20:11:22.142Z,1.50
2018-10-02T20:13:52.139Z,2.10
2018-10-02T20:16:27.055Z,1.47
2018-10-02T20:18:56.999Z,2.00
2018-10-02T20:21:26.254Z,1.93
2018-10-02T20:23:57.678Z,1.10
2018-10-02T20:26:26.767Z,1.70
2018-10-02T20:28:56.018Z,1.80
2018-10-02T20:31:25.237Z,1.80
2018-10-02T20:33:54.085Z,1.93
2018-10-02T20:36:24.896Z,2.00
2018-10-02T20:38:54.503Z,1.67
2018-10-02T20:41:24.541Z,1.60
2018-10-02T20:43:55.016Z,1.90
2018-10-02T20:46:25.346Z,1.97
2018-10-02T20:48:57.304Z,1.30
2018-10-02T20:51:28.154Z,1.77
2018-10-02T20:53:57.785Z,1.60
2018-10-02T20:56:27.606Z,2.40
2018-10-02T20:58:56.896Z,1.60
2018-10-02T21:01:26.321Z,1.53
2018-10-02T21:03:58.470Z,2.60
2018-10-02T21:06:28.573Z,1.93
2018-10-02T21:08:58.587Z,1.97
2018-10-02T21:11:28.397Z,1.47
2018-10-02T21:13:58.569Z,2.40
2018-10-02T21:16:27.611Z,2.50
2018-10-02T21:18:57.729Z,2.00
2018-10-02T21:21:26.858Z,2.50
2018-10-02T21:23:55.961Z,1.90
2018-10-02T21:26:25.869Z,1.90
2018-10-02T21:28:54.977Z,1.90
2018-10-02T21:31:24.571Z,2.80
2018-10-02T21:33:54.149Z,1.70
2018-10-02T21:36:23.300Z,2.50
2018-10-02T21:38:53.837Z,2.10
2018-10-02T21:41:23.118Z,2.20
2018-10-02T21:43:52.762Z,2.43
2018-10-02T21:46:24.467Z,2.47
2018-10-02T21:48:54.840Z,2.13
2018-10-02T21:51:23.997Z,2.87
2018-10-02T21:53:54.433Z,2.43
2018-10-02T21:56:25.875Z,3.23
2018-10-02T21:58:55.129Z,2.17
2018-10-02T22:01:30.315Z,2.53
2018-10-02T22:04:00.293Z,2.87
2018-10-02T22:06:29.631Z,2.27
2018-10-02T22:08:58.726Z,4.13
2018-10-02T22:11:27.463Z,3.43
2018-10-02T22:13:56.440Z,3.77
2018-10-02T22:16:25.578Z,7.77
2018-10-02T22:18:55.027Z,3.90
2018-10-02T22:21:24.728Z,4.13
2018-10-02T22:23:54.449Z,4.13
2018-10-02T22:26:23.792Z,4.80
2018-10-02T22:28:53.000Z,4.50
2018-10-02T22:31:22.180Z,6.53
2018-10-02T22:33:51.313Z,5.70
2018-10-02T22:36:21.814Z,2.10
2018-10-02T22:38:50.994Z,4.20
2018-10-02T22:41:20.130Z,6.50
2018-10-02T22:43:49.411Z,3.93
2018-10-02T22:46:18.436Z,3.50
2018-10-02T22:48:48.255Z,3.27
2018-10-02T22:51:17.701Z,4.10
2018-10-02T22:53:47.903Z,3.80
2018-10-02T22:56:16.982Z,4.37
2018-10-02T22:58:46.696Z,3.50
2018-10-02T23:01:15.733Z,3.00
2018-10-02T23:03:44.828Z,2.67
2018-10-02T23:06:13.868Z,2.57
2018-10-02T23:08:43.563Z,3.63
2018-10-02T23:11:12.649Z,3.20
2018-10-02T23:13:42.501Z,3.33
2018-10-02T23:16:11.874Z,2.70
2018-10-02T23:18:41.009Z,2.87
2018-10-02T23:21:11.068Z,6.43
2018-10-02T23:23:39.840Z,3.20
2018-10-02T23:26:08.874Z,2.63
2018-10-02T23:28:37.941Z,2.60
2018-10-02T23:31:07.108Z,4.27
2018-10-02T23:33:36.409Z,3.47
2018-10-02T23:36:05.464Z,2.80
2018-10-02T23:38:34.632Z,2.97
2018-10-02T23:41:03.752Z,3.23
2018-10-02T23:43:32.789Z,3.37
2018-10-02T23:46:02.552Z,2.20
2018-10-02T23:50:01.865Z,2.93
2018-10-02T23:52:31.825Z,3.77
2018-10-02T23:55:01.792Z,2.50
2018-10-02T23:57:30.853Z,2.00
